createdAt,value
2022-12-18T00:01:40.265Z,7.88
2022-12-18T00:04:10.398Z,9.85
2022-12-18T00:06:38.580Z,10.20
2022-12-18T00:09:10.386Z,9.25
2022-12-18T00:11:40.148Z,7.47
2022-12-18T00:14:08.327Z,7.55
2022-12-18T00:16:37.846Z,8.05
2022-12-18T00:19:08.328Z,7.35
2022-12-18T00:21:36.572Z,6.32
2022-12-18T00:24:05.248Z,8.25
2022-12-18T00:26:35.673Z,9.05
2022-12-18T00:29:08.231Z,6.45
2022-12-18T00:31:38.283Z,5.75
2022-12-18T00:34:06.973Z,6.15
2022-12-18T00:36:36.711Z,7.63
2022-12-18T00:39:10.163Z,6.13
2022-12-18T00:41:55.796Z,7.55
2022-12-18T00:44:25.953Z,6.60
2022-12-18T00:46:57.041Z,6.47
2022-12-18T00:49:31.084Z,7.10
2022-12-18T00:51:59.601Z,6.63
2022-12-18T00:54:28.731Z,8.20
2022-12-18T00:56:58.099Z,8.23
2022-12-18T00:59:28.075Z,4.72
2022-12-18T01:01:59.773Z,7.22
2022-12-18T01:04:29.392Z,7.97
2022-12-18T01:06:57.820Z,7.68
2022-12-18T01:09:27.162Z,8.85
2022-12-18T01:14:23.719Z,4.53
2022-12-18T01:16:53.790Z,6.18
2022-12-18T01:19:22.612Z,6.00
2022-12-18T01:21:51.149Z,7.00
2022-12-18T01:24:19.417Z,7.47
2022-12-18T01:26:47.652Z,9.07
2022-12-18T01:29:16.271Z,7.50
2022-12-18T01:31:44.521Z,6.72
2022-12-18T01:34:15.881Z,6.53
2022-12-18T01:36:45.336Z,7.00
2022-12-18T01:39:16.437Z,8.70
2022-12-18T01:41:59.002Z,8.13
2022-12-18T01:45:09.092Z,7.63
2022-12-18T01:47:41.458Z,5.90
2022-12-18T01:50:14.719Z,6.55
2022-12-18T01:52:44.820Z,7.38
2022-12-18T01:55:15.091Z,7.43
2022-12-18T01:57:45.127Z,6.63
2022-12-18T02:00:17.798Z,6.30
2022-12-18T02:02:50.228Z,8.95
2022-12-18T02:05:33.909Z,7.38
2022-12-18T02:08:10.122Z,3.78
2022-12-18T02:10:49.089Z,7.72
2022-12-18T02:13:23.666Z,6.15
2022-12-18T02:16:04.280Z,6.43
2022-12-18T02:18:39.315Z,7.63
2022-12-18T02:21:22.944Z,8.50
2022-12-18T02:23:58.735Z,7.00
2022-12-18T02:26:33.014Z,7.78
2022-12-18T02:29:06.182Z,7.93
2022-12-18T02:31:44.603Z,10.25
2022-12-18T02:34:15.913Z,6.07
2022-12-18T02:36:48.260Z,5.22
2022-12-18T02:39:18.777Z,9.05
2022-12-18T02:42:00.418Z,6.22
2022-12-18T02:44:29.014Z,6.82
2022-12-18T02:46:58.655Z,8.68
2022-12-18T02:49:42.346Z,7.45
2022-12-18T02:52:24.948Z,7.45
2022-12-18T02:55:02.537Z,7.65
2022-12-18T02:57:42.980Z,5.95
2022-12-18T03:00:16.245Z,9.05
2022-12-18T03:02:50.299Z,7.35
2022-12-18T03:05:22.668Z,8.60
2022-12-18T03:07:57.746Z,7.45
2022-12-18T03:10:35.675Z,5.57
2022-12-18T03:13:09.425Z,8.55
2022-12-18T03:15:42.979Z,7.13
2022-12-18T03:18:20.036Z,5.90
2022-12-18T03:20:52.177Z,5.90
2022-12-18T03:23:26.754Z,5.32
2022-12-18T03:26:07.296Z,7.47
2022-12-18T03:28:47.416Z,7.18
2022-12-18T03:31:19.473Z,6.65
2022-12-18T03:33:55.509Z,5.75
2022-12-18T03:36:29.720Z,6.43
2022-12-18T03:39:01.116Z,4.53
2022-12-18T03:41:34.349Z,8.18
2022-12-18T03:44:32.121Z,4.00
2022-12-18T03:47:08.185Z,7.88
2022-12-18T03:49:41.284Z,7.47
2022-12-18T03:52:18.958Z,9.40
2022-12-18T03:54:48.312Z,6.57
2022-12-18T03:57:23.812Z,8.95
2022-12-18T04:00:00.611Z,4.82
2022-12-18T04:02:35.154Z,4.82
2022-12-18T04:05:09.628Z,6.75
2022-12-18T04:07:41.832Z,7.25
2022-12-18T04:10:14.888Z,7.82
2022-12-18T04:12:43.577Z,5.75
2022-12-18T04:15:17.204Z,8.43
2022-12-18T04:17:50.894Z,5.72
2022-12-18T04:20:22.614Z,9.82
2022-12-18T04:22:51.334Z,4.78
2022-12-18T04:25:22.497Z,7.40
2022-12-18T04:28:08.089Z,9.98
2022-12-18T04:30:39.486Z,5.40
2022-12-18T04:33:11.191Z,6.43
2022-12-18T04:35:41.589Z,6.80
2022-12-18T04:38:10.554Z,3.80
2022-12-18T04:40:39.903Z,5.28
2022-12-18T04:43:17.666Z,3.75
2022-12-18T04:45:47.707Z,4.03
2022-12-18T04:48:16.276Z,6.90
2022-12-18T04:50:44.381Z,6.83
2022-12-18T04:53:13.583Z,5.75
2022-12-18T04:55:42.034Z,6.72
2022-12-18T04:58:10.557Z,6.10
2022-12-18T05:00:40.555Z,5.85
2022-12-18T05:03:10.161Z,5.40
2022-12-18T05:05:39.030Z,5.05
2022-12-18T05:08:07.250Z,5.53
2022-12-18T05:10:38.238Z,8.00
2022-12-18T05:13:06.821Z,4.20
2022-12-18T05:15:36.479Z,7.10
2022-12-18T05:20:36.167Z,6.13
2022-12-18T05:23:04.341Z,4.97
2022-12-18T05:25:32.756Z,7.40
2022-12-18T05:28:01.340Z,6.80
2022-12-18T05:30:29.560Z,8.10
2022-12-18T05:32:58.077Z,6.47
2022-12-18T05:35:26.315Z,5.47
2022-12-18T05:37:55.925Z,7.07
2022-12-18T05:40:24.083Z,7.47
2022-12-18T05:42:54.027Z,5.07
2022-12-18T05:45:23.319Z,8.32
2022-12-18T05:47:51.832Z,7.07
2022-12-18T05:50:20.082Z,7.37
2022-12-18T05:52:48.266Z,5.25
2022-12-18T05:55:17.910Z,9.65
2022-12-18T05:57:46.071Z,7.05
2022-12-18T06:00:15.938Z,6.40
2022-12-18T06:02:48.705Z,6.72
2022-12-18T06:05:17.267Z,9.73
2022-12-18T06:07:45.449Z,6.57
2022-12-18T06:10:13.735Z,7.82
2022-12-18T06:12:44.342Z,4.30
2022-12-18T06:15:12.951Z,8.40
2022-12-18T06:17:41.226Z,6.87
2022-12-18T06:20:10.421Z,7.47
2022-12-18T06:22:38.921Z,8.63
2022-12-18T06:25:08.555Z,6.18
2022-12-18T06:30:10.757Z,5.85
2022-12-18T06:32:39.067Z,8.68
2022-12-18T06:35:08.469Z,7.60
2022-12-18T06:37:37.096Z,6.05
2022-12-18T06:40:09.623Z,5.55
2022-12-18T06:42:38.246Z,9.27
2022-12-18T06:45:10.285Z,11.02
2022-12-18T06:47:39.080Z,7.05
2022-12-18T06:50:13.412Z,7.28
2022-12-18T06:52:43.613Z,5.63
2022-12-18T06:55:15.169Z,5.85
2022-12-18T06:57:45.235Z,6.05
2022-12-18T07:00:16.822Z,5.75
2022-12-18T07:02:49.842Z,6.80
2022-12-18T07:05:18.245Z,6.85
2022-12-18T07:07:46.671Z,4.10
2022-12-18T07:10:16.292Z,6.70
2022-12-18T07:12:44.515Z,5.55
2022-12-18T07:15:14.305Z,6.80
2022-12-18T07:17:44.830Z,8.07
2022-12-18T07:20:13.659Z,9.00
2022-12-18T07:22:42.485Z,9.65
2022-12-18T07:25:11.193Z,4.82
2022-12-18T07:27:39.724Z,9.07
2022-12-18T07:30:10.818Z,7.20
2022-12-18T07:32:40.488Z,8.40
2022-12-18T07:35:09.242Z,5.85
2022-12-18T07:37:37.951Z,9.48
2022-12-18T07:40:08.317Z,10.03
2022-12-18T07:42:37.873Z,7.60
2022-12-18T07:45:07.438Z,8.45
2022-12-18T07:47:37.527Z,5.00
2022-12-18T07:50:08.251Z,6.78
2022-12-18T07:52:36.748Z,5.88
2022-12-18T07:55:05.870Z,9.18
2022-12-18T07:57:55.185Z,7.85
2022-12-18T08:00:24.900Z,7.30
2022-12-18T08:02:53.321Z,6.32
2022-12-18T08:05:23.614Z,7.20
2022-12-18T08:07:51.894Z,9.15
2022-12-18T08:10:21.045Z,8.17
2022-12-18T08:12:51.785Z,8.48
2022-12-18T08:15:20.161Z,5.72
2022-12-18T08:17:48.342Z,6.30
2022-12-18T08:20:17.040Z,8.50
2022-12-18T08:22:47.985Z,6.03
2022-12-18T08:25:16.747Z,7.78
2022-12-18T08:27:45.652Z,6.65
2022-12-18T08:30:14.691Z,6.33
2022-12-18T08:32:42.898Z,7.43
2022-12-18T08:35:14.806Z,8.57
2022-12-18T08:37:47.158Z,7.50
2022-12-18T08:40:18.676Z,6.20
2022-12-18T08:43:04.357Z,8.63
2022-12-18T08:45:36.031Z,4.80
2022-12-18T08:48:07.705Z,7.50
2022-12-18T08:50:37.313Z,7.63
2022-12-18T08:53:08.611Z,7.38
2022-12-18T08:55:37.084Z,6.38
2022-12-18T08:58:06.443Z,7.97
2022-12-18T09:00:37.232Z,4.63
2022-12-18T09:03:05.565Z,7.30
2022-12-18T09:05:34.336Z,9.07
2022-12-18T09:08:05.211Z,6.90
2022-12-18T09:10:40.171Z,8.98
2022-12-18T09:13:12.922Z,7.93
2022-12-18T09:15:43.830Z,7.72
2022-12-18T09:18:12.091Z,8.82
2022-12-18T09:20:42.473Z,6.88
2022-12-18T09:23:12.451Z,10.07
2022-12-18T09:25:42.248Z,12.32
2022-12-18T09:28:13.677Z,7.38
2022-12-18T09:30:45.201Z,7.55
2022-12-18T09:33:13.843Z,6.35
2022-12-18T09:35:44.417Z,5.25
2022-12-18T09:38:15.819Z,6.53
2022-12-18T09:40:49.689Z,8.43
2022-12-18T09:43:21.021Z,11.00
2022-12-18T09:45:55.307Z,6.82
2022-12-18T09:48:29.196Z,8.55
2022-12-18T09:51:01.788Z,7.20
2022-12-18T09:53:35.326Z,8.20
2022-12-18T09:56:07.198Z,7.45
2022-12-18T09:58:42.090Z,8.45
2022-12-18T10:01:12.751Z,6.95
2022-12-18T10:03:41.837Z,7.85
2022-12-18T10:06:16.397Z,8.00
2022-12-18T10:08:51.244Z,8.73
2022-12-18T10:11:35.196Z,7.15
2022-12-18T10:14:13.084Z,8.32
2022-12-18T10:16:50.227Z,7.47
2022-12-18T10:19:31.063Z,8.45
2022-12-18T10:22:10.155Z,8.98
2022-12-18T10:24:47.337Z,6.28
2022-12-18T10:27:18.873Z,8.35
2022-12-18T10:29:48.280Z,8.73
2022-12-18T10:32:19.032Z,6.60
2022-12-18T10:34:49.487Z,8.77
2022-12-18T10:37:21.059Z,11.25
2022-12-18T10:40:09.497Z,11.40
2022-12-18T10:42:39.896Z,9.50
2022-12-18T10:45:13.062Z,9.80
2022-12-18T10:47:46.082Z,12.00
2022-12-18T10:50:46.819Z,9.02
2022-12-18T10:53:21.272Z,10.10
2022-12-18T10:55:50.993Z,7.50
2022-12-18T10:58:26.869Z,9.68
2022-12-18T11:01:13.790Z,8.77
2022-12-18T11:03:45.526Z,9.88
2022-12-18T11:06:16.391Z,10.80
2022-12-18T11:08:47.010Z,10.07
2022-12-18T11:11:22.627Z,8.30
2022-12-18T11:14:02.730Z,8.65
2022-12-18T11:16:35.051Z,8.70
2022-12-18T11:19:24.519Z,7.90
2022-12-18T11:21:54.454Z,8.48
2022-12-18T11:24:29.273Z,8.57
2022-12-18T11:27:45.084Z,8.07
2022-12-18T11:30:24.655Z,8.90
2022-12-18T11:32:59.718Z,7.57
2022-12-18T11:35:37.927Z,10.15
2022-12-18T11:38:21.410Z,9.73
2022-12-18T11:40:55.577Z,9.90
2022-12-18T11:43:29.164Z,14.07
2022-12-18T11:46:04.721Z,13.05
2022-12-18T11:48:39.428Z,8.35
2022-12-18T11:51:17.707Z,10.57
2022-12-18T11:53:47.255Z,12.25
2022-12-18T11:56:31.931Z,11.00
2022-12-18T11:59:11.711Z,8.65
2022-12-18T12:04:50.514Z,8.30
2022-12-18T12:07:28.285Z,9.90
2022-12-18T12:10:09.893Z,11.20
2022-12-18T12:12:55.524Z,8.60
2022-12-18T12:15:33.074Z,9.73
2022-12-18T12:18:11.643Z,8.90
2022-12-18T12:20:51.443Z,6.77
2022-12-18T12:26:14.925Z,8.15
2022-12-18T12:29:09.235Z,6.55
2022-12-18T12:31:56.800Z,8.77
2022-12-18T12:34:39.073Z,10.25
2022-12-18T12:37:27.196Z,8.73
2022-12-18T12:39:57.227Z,10.48
2022-12-18T12:42:51.086Z,6.97
2022-12-18T12:45:25.733Z,7.63
2022-12-18T12:47:56.887Z,6.57
2022-12-18T12:50:28.186Z,7.57
2022-12-18T12:52:59.340Z,7.68
2022-12-18T12:55:31.529Z,7.60
2022-12-18T12:58:13.610Z,8.23
2022-12-18T13:00:52.351Z,7.22
2022-12-18T13:03:31.518Z,8.95
2022-12-18T13:06:06.796Z,9.32
2022-12-18T13:08:58.430Z,10.73
2022-12-18T13:12:00.370Z,9.05
2022-12-18T13:14:33.163Z,8.93
2022-12-18T13:17:32.201Z,10.05
2022-12-18T13:20:11.375Z,9.75
2022-12-18T13:25:33.199Z,7.75
2022-12-18T13:28:13.693Z,9.40
2022-12-18T13:30:58.962Z,9.90
2022-12-18T13:34:16.491Z,8.52
2022-12-18T13:36:36.392Z,8.25
2022-12-18T13:39:38.212Z,8.18
2022-12-18T13:42:57.665Z,10.13
2022-12-18T13:48:19.696Z,6.43
2022-12-18T13:50:51.933Z,9.13
2022-12-18T13:53:25.914Z,6.50
2022-12-18T13:55:56.041Z,7.93
2022-12-18T13:58:25.184Z,6.55
2022-12-18T14:01:00.830Z,9.25
2022-12-18T14:03:31.690Z,9.80
2022-12-18T14:06:08.045Z,9.68
2022-12-18T14:08:42.622Z,9.40
2022-12-18T14:11:26.714Z,8.85
2022-12-18T14:13:55.654Z,7.93
2022-12-18T14:16:24.569Z,8.30
2022-12-18T14:18:58.528Z,7.28
2022-12-18T14:24:07.844Z,8.40
2022-12-18T14:26:38.961Z,7.65
2022-12-18T14:29:26.320Z,10.07
2022-12-18T14:32:18.729Z,8.50
2022-12-18T14:34:49.714Z,9.60
2022-12-18T14:37:20.413Z,11.00
2022-12-18T14:39:59.240Z,8.90
2022-12-18T14:42:33.100Z,8.27
2022-12-18T14:45:41.492Z,8.23
2022-12-18T14:50:47.247Z,8.38
2022-12-18T14:53:25.650Z,7.30
2022-12-18T14:55:54.196Z,8.75
2022-12-18T14:58:24.200Z,8.85
2022-12-18T15:00:53.469Z,9.57
2022-12-18T15:03:23.789Z,7.88
2022-12-18T15:05:54.967Z,9.02
2022-12-18T15:08:39.769Z,8.68
2022-12-18T15:11:28.100Z,9.20
2022-12-18T15:14:00.052Z,7.53
2022-12-18T15:16:29.724Z,9.57
2022-12-18T15:18:59.628Z,7.75
2022-12-18T15:21:31.902Z,10.02
2022-12-18T15:24:01.268Z,9.60
2022-12-18T15:29:21.101Z,10.50
2022-12-18T15:32:01.498Z,7.20
2022-12-18T15:34:30.160Z,10.40
2022-12-18T15:36:58.963Z,6.53
2022-12-18T15:39:27.774Z,10.48
2022-12-18T15:42:13.897Z,11.57
2022-12-18T15:44:46.305Z,10.80
2022-12-18T15:47:16.243Z,8.50
2022-12-18T15:49:44.819Z,10.73
2022-12-18T15:52:27.143Z,9.23
2022-12-18T15:55:13.325Z,9.85
2022-12-18T15:57:41.852Z,10.25
2022-12-18T16:00:14.668Z,11.48
2022-12-18T16:02:43.035Z,12.40
2022-12-18T16:05:18.053Z,12.82
2022-12-18T16:07:46.303Z,9.20
2022-12-18T16:10:14.836Z,9.82
2022-12-18T16:12:44.242Z,14.07
2022-12-18T16:15:22.503Z,10.43
2022-12-18T16:17:52.765Z,10.10
2022-12-18T16:20:23.637Z,11.93
2022-12-18T16:22:52.185Z,10.90
2022-12-18T16:25:23.937Z,11.85
2022-12-18T16:27:54.253Z,10.45
2022-12-18T16:30:26.435Z,10.07
2022-12-18T16:32:58.337Z,7.90
2022-12-18T16:35:27.975Z,9.80
2022-12-18T16:37:56.232Z,12.73
2022-12-18T16:40:24.560Z,12.32
2022-12-18T16:42:53.383Z,12.90
2022-12-18T16:45:23.545Z,11.60
2022-12-18T16:47:53.646Z,12.15
2022-12-18T16:50:22.076Z,10.57
2022-12-18T16:52:50.489Z,10.30
2022-12-18T16:55:18.708Z,11.00
2022-12-18T16:57:46.859Z,11.00
2022-12-18T17:00:16.940Z,12.60
2022-12-18T17:02:51.909Z,14.52
2022-12-18T17:05:26.898Z,12.23
2022-12-18T17:08:01.193Z,9.23
2022-12-18T17:10:29.836Z,13.48
2022-12-18T17:12:58.844Z,11.47
2022-12-18T17:15:29.347Z,10.38
2022-12-18T17:17:58.971Z,11.90
2022-12-18T17:22:56.668Z,9.88
2022-12-18T17:25:26.098Z,10.60
2022-12-18T17:27:55.474Z,8.95
2022-12-18T17:30:23.695Z,11.93
2022-12-18T17:32:51.911Z,9.75
2022-12-18T17:35:22.598Z,10.50
2022-12-18T17:37:50.794Z,11.70
2022-12-18T17:40:19.936Z,9.45
2022-12-18T17:42:53.522Z,9.00
2022-12-18T17:45:21.910Z,9.13
2022-12-18T17:47:51.015Z,9.00
2022-12-18T17:50:23.011Z,10.02
2022-12-18T17:55:20.589Z,9.68
2022-12-18T17:57:49.128Z,9.48
2022-12-18T18:00:18.019Z,10.10
2022-12-18T18:02:47.205Z,11.20
2022-12-18T18:05:20.425Z,9.07
2022-12-18T18:07:52.976Z,8.73
2022-12-18T18:10:22.709Z,10.43
2022-12-18T18:13:08.615Z,11.20
2022-12-18T18:15:37.268Z,10.70
2022-12-18T18:18:09.732Z,10.60
2022-12-18T18:20:44.174Z,11.00
2022-12-18T18:23:14.171Z,10.13
2022-12-18T18:28:10.730Z,9.43
2022-12-18T18:30:39.612Z,9.70
2022-12-18T18:33:11.985Z,11.88
2022-12-18T18:35:58.874Z,10.73
2022-12-18T18:38:31.586Z,10.32
2022-12-18T18:41:01.877Z,13.20
2022-12-18T18:43:31.027Z,13.13
2022-12-18T18:46:00.647Z,10.15
2022-12-18T18:48:37.697Z,10.15
2022-12-18T18:51:12.548Z,10.75
2022-12-18T18:53:47.154Z,9.77
2022-12-18T18:59:07.571Z,10.18
2022-12-18T19:01:36.079Z,10.00
2022-12-18T19:04:08.859Z,12.80
2022-12-18T19:06:38.786Z,10.00
2022-12-18T19:09:10.739Z,10.88
2022-12-18T19:11:58.830Z,12.02
2022-12-18T19:14:27.193Z,13.98
2022-12-18T19:16:56.535Z,11.60
2022-12-18T19:22:11.512Z,13.18
2022-12-18T19:24:42.949Z,13.18
2022-12-18T19:27:12.498Z,12.13
2022-12-18T19:29:40.982Z,10.80
2022-12-18T19:32:12.622Z,14.30
2022-12-18T19:34:42.769Z,10.43
2022-12-18T19:37:13.318Z,11.75
2022-12-18T19:42:13.963Z,10.48
2022-12-18T19:44:42.424Z,14.02
2022-12-18T19:47:10.726Z,11.57
2022-12-18T19:53:16.949Z,9.98
2022-12-18T19:55:51.140Z,10.43
2022-12-18T19:58:20.723Z,11.60
2022-12-18T20:00:51.522Z,11.63
2022-12-18T20:03:27.394Z,16.00
2022-12-18T20:06:14.417Z,12.00
2022-12-18T20:08:42.732Z,11.05
2022-12-18T20:11:12.918Z,8.63
2022-12-18T20:13:43.798Z,10.85
2022-12-18T20:16:12.751Z,15.10
2022-12-18T20:18:43.384Z,13.75
2022-12-18T20:21:14.037Z,12.85
2022-12-18T20:23:45.409Z,11.60
2022-12-18T20:26:16.406Z,9.88
2022-12-18T20:28:44.842Z,10.82
2022-12-18T20:31:14.364Z,11.23
2022-12-18T20:33:43.551Z,10.13
2022-12-18T20:36:22.384Z,11.10
2022-12-18T20:38:52.884Z,9.82
2022-12-18T20:41:36.056Z,10.18
2022-12-18T20:44:21.364Z,11.38
2022-12-18T20:46:51.647Z,10.77
2022-12-18T20:51:51.741Z,12.30
2022-12-18T20:54:20.817Z,11.88
2022-12-18T20:56:53.105Z,14.63
2022-12-18T20:59:23.220Z,12.57
2022-12-18T21:01:52.197Z,15.05
2022-12-18T21:04:20.872Z,15.23
2022-12-18T21:06:56.781Z,15.17
2022-12-18T21:09:37.841Z,13.05
2022-12-18T21:12:40.390Z,12.20
2022-12-18T21:15:12.599Z,14.98
2022-12-18T21:17:44.605Z,11.38
2022-12-18T21:20:18.207Z,14.70
2022-12-18T21:22:49.189Z,13.10
2022-12-18T21:25:20.608Z,12.25
2022-12-18T21:27:50.439Z,12.63
2022-12-18T21:30:18.992Z,13.23
2022-12-18T21:32:47.987Z,12.45
2022-12-18T21:35:17.904Z,14.20
2022-12-18T21:37:48.033Z,14.38
2022-12-18T21:40:16.563Z,11.73
2022-12-18T21:43:02.217Z,17.48
2022-12-18T21:45:31.683Z,15.52
2022-12-18T21:47:59.935Z,12.93
2022-12-18T21:50:28.337Z,12.80
2022-12-18T21:52:57.433Z,11.93
2022-12-18T21:55:28.204Z,13.52
2022-12-18T21:57:58.024Z,14.13
2022-12-18T22:00:26.428Z,11.52
2022-12-18T22:03:18.763Z,11.43
2022-12-18T22:05:45.189Z,13.15
2022-12-18T22:08:13.779Z,11.07
2022-12-18T22:10:43.591Z,12.77
2022-12-18T22:13:12.284Z,13.63
2022-12-18T22:15:42.056Z,11.70
2022-12-18T22:18:14.784Z,14.77
2022-12-18T22:20:43.093Z,15.05
2022-12-18T22:23:13.087Z,13.75
2022-12-18T22:25:43.632Z,14.98
2022-12-18T22:28:29.669Z,15.52
2022-12-18T22:30:59.659Z,12.85
2022-12-18T22:33:30.159Z,14.07
2022-12-18T22:35:58.282Z,12.10
2022-12-18T22:38:27.156Z,14.87
2022-12-18T22:40:56.576Z,11.77
2022-12-18T22:45:54.790Z,9.98
2022-12-18T22:48:23.675Z,9.43
2022-12-18T22:50:54.802Z,12.80
2022-12-18T22:53:28.542Z,9.10
2022-12-18T22:56:01.651Z,12.80
2022-12-18T22:58:30.463Z,11.98
2022-12-18T23:00:59.709Z,11.23
2022-12-18T23:03:30.628Z,10.98
2022-12-18T23:06:06.107Z,10.02
2022-12-18T23:08:34.674Z,9.98
2022-12-18T23:11:04.585Z,11.38
2022-12-18T23:13:34.619Z,13.10
2022-12-18T23:16:07.431Z,12.52
2022-12-18T23:18:37.057Z,15.95
2022-12-18T23:21:08.207Z,10.68
2022-12-18T23:23:38.988Z,12.18
2022-12-18T23:26:11.566Z,9.18
2022-12-18T23:28:41.399Z,10.63
2022-12-18T23:31:21.809Z,12.80
2022-12-18T23:33:51.516Z,9.65
2022-12-18T23:38:56.498Z,8.32
2022-12-18T23:41:30.337Z,8.95
2022-12-18T23:44:00.770Z,9.65
2022-12-18T23:46:31.277Z,9.95
2022-12-18T23:49:08.405Z,9.13
2022-12-18T23:51:42.112Z,8.70
2022-12-18T23:54:11.845Z,10.23
2022-12-18T23:56:41.296Z,8.82
2022-12-18T23:59:12.836Z,8.20
